createdAt,value
2022-09-30T00:01:40.997Z,15.40
2022-09-30T00:04:14.435Z,15.57
2022-09-30T00:06:42.754Z,19.13
2022-09-30T00:09:11.439Z,14.93
2022-09-30T00:11:40.317Z,14.53
2022-09-30T00:14:14.981Z,17.93
2022-09-30T00:16:43.700Z,14.70
2022-09-30T00:19:12.778Z,14.70
2022-09-30T00:21:41.375Z,15.90
2022-09-30T00:24:10.021Z,17.37
2022-09-30T00:26:38.382Z,18.03
2022-09-30T00:29:07.006Z,17.10
2022-09-30T00:31:37.654Z,15.80
2022-09-30T00:34:09.102Z,15.33
2022-09-30T00:36:43.561Z,19.20
2022-09-30T00:39:14.936Z,15.60
2022-09-30T00:41:43.677Z,18.17
2022-09-30T00:44:52.598Z,15.80
2022-09-30T00:47:43.441Z,17.30
2022-09-30T00:50:26.180Z,17.57
2022-09-30T00:53:01.873Z,15.20
2022-09-30T00:55:48.313Z,16.63
2022-09-30T00:58:25.232Z,17.03
2022-09-30T01:00:53.493Z,18.63
2022-09-30T01:03:24.401Z,17.73
2022-09-30T01:05:53.357Z,20.33
2022-09-30T01:08:23.312Z,17.90
2022-09-30T01:10:51.575Z,18.60
2022-09-30T01:13:22.405Z,16.27
2022-09-30T01:16:07.703Z,16.23
2022-09-30T01:18:54.522Z,18.37
2022-09-30T01:22:00.098Z,18.20
2022-09-30T01:25:11.468Z,18.93
2022-09-30T01:28:10.834Z,18.07
2022-09-30T01:30:57.329Z,17.53
2022-09-30T01:33:40.727Z,19.03
2022-09-30T01:36:26.266Z,20.13
2022-09-30T01:39:08.328Z,19.90
2022-09-30T01:41:46.201Z,20.53
2022-09-30T01:44:19.136Z,19.10
2022-09-30T01:46:55.266Z,18.57
2022-09-30T01:49:33.608Z,20.43
2022-09-30T01:52:08.479Z,20.90
2022-09-30T01:54:43.650Z,18.70
2022-09-30T01:57:20.242Z,22.17
2022-09-30T01:59:53.958Z,18.53
2022-09-30T02:02:27.611Z,18.40
2022-09-30T02:05:01.162Z,18.67
2022-09-30T02:07:35.212Z,21.43
2022-09-30T02:10:10.513Z,23.67
2022-09-30T02:12:48.089Z,18.53
2022-09-30T02:15:23.142Z,19.40
2022-09-30T02:17:58.295Z,20.70
2022-09-30T02:20:29.471Z,21.67
2022-09-30T02:23:05.874Z,18.97
2022-09-30T02:25:39.906Z,21.40
2022-09-30T02:28:13.711Z,21.73
2022-09-30T02:30:46.989Z,18.20
2022-09-30T02:33:22.842Z,20.27
2022-09-30T02:35:57.602Z,19.70
2022-09-30T02:38:36.976Z,20.10
2022-09-30T02:41:10.446Z,21.30
2022-09-30T02:43:42.053Z,20.10
2022-09-30T02:46:19.976Z,20.30
2022-09-30T02:48:58.273Z,17.63
2022-09-30T02:51:36.793Z,21.43
2022-09-30T02:54:17.670Z,21.17
2022-09-30T02:56:53.253Z,23.87
2022-09-30T02:59:22.339Z,20.97
2022-09-30T03:01:50.742Z,21.03
2022-09-30T03:04:26.265Z,18.60
2022-09-30T03:06:55.456Z,23.93
2022-09-30T03:09:27.071Z,21.47
2022-09-30T03:12:04.308Z,20.30
2022-09-30T03:14:52.717Z,20.57
2022-09-30T03:17:39.703Z,18.53
2022-09-30T03:20:30.189Z,17.87
2022-09-30T03:23:21.323Z,19.80
2022-09-30T03:26:01.194Z,19.87
2022-09-30T03:28:34.565Z,19.80
2022-09-30T03:31:11.525Z,20.47
2022-09-30T03:33:50.516Z,18.90
2022-09-30T03:36:29.422Z,18.57
2022-09-30T03:39:06.863Z,22.07
2022-09-30T03:41:41.846Z,17.90
2022-09-30T03:44:17.926Z,17.30
2022-09-30T03:46:51.741Z,19.57
2022-09-30T03:49:24.606Z,19.17
2022-09-30T03:51:58.534Z,18.43
2022-09-30T03:54:27.764Z,19.53
2022-09-30T03:56:55.878Z,17.47
2022-09-30T03:59:28.557Z,21.30
2022-09-30T04:01:57.610Z,19.37
2022-09-30T04:04:25.989Z,19.77
2022-09-30T04:06:55.487Z,16.73
2022-09-30T04:09:24.508Z,19.30
2022-09-30T04:11:52.905Z,18.70
2022-09-30T04:14:20.991Z,19.77
2022-09-30T04:16:53.192Z,19.20
2022-09-30T04:19:22.565Z,19.93
2022-09-30T04:21:53.831Z,23.13
2022-09-30T04:24:24.639Z,19.30
2022-09-30T04:26:53.146Z,19.47
2022-09-30T04:29:21.297Z,20.37
2022-09-30T04:31:49.463Z,18.63
2022-09-30T04:34:17.658Z,21.50
2022-09-30T04:36:45.945Z,17.93
2022-09-30T04:39:14.153Z,22.20
2022-09-30T04:41:43.733Z,23.43
2022-09-30T04:44:13.156Z,26.43
2022-09-30T04:46:41.436Z,22.90
2022-09-30T04:49:09.750Z,19.90
2022-09-30T04:51:43.824Z,21.23
2022-09-30T04:54:11.941Z,21.07
2022-09-30T04:56:40.184Z,18.73
2022-09-30T04:59:09.802Z,20.53
2022-09-30T05:01:39.269Z,23.50
2022-09-30T05:04:08.207Z,23.57
2022-09-30T05:06:36.355Z,20.70
2022-09-30T05:09:04.768Z,22.13
2022-09-30T05:11:32.973Z,24.23
2022-09-30T05:14:01.407Z,21.87
2022-09-30T05:16:30.939Z,19.90
2022-09-30T05:18:59.110Z,21.33
2022-09-30T05:21:27.291Z,21.63
2022-09-30T05:23:55.645Z,24.47
2022-09-30T05:26:23.776Z,20.50
2022-09-30T05:28:51.934Z,24.80
2022-09-30T05:31:20.887Z,24.20
2022-09-30T05:33:53.551Z,28.63
2022-09-30T05:36:25.505Z,24.77
2022-09-30T05:38:54.241Z,24.77
2022-09-30T05:41:23.011Z,32.10
2022-09-30T05:43:51.764Z,41.17
2022-09-30T05:46:21.583Z,97.73
2022-09-30T05:48:54.744Z,76.10
2022-09-30T05:51:23.165Z,53.77
2022-09-30T05:53:54.002Z,38.03
2022-09-30T05:56:22.304Z,33.13
2022-09-30T05:58:50.981Z,51.50
2022-09-30T06:01:19.252Z,57.80
2022-09-30T06:03:47.876Z,89.67
2022-09-30T06:06:19.119Z,106.93
2022-09-30T06:08:47.806Z,46.53
2022-09-30T06:11:18.742Z,83.03
2022-09-30T06:13:49.197Z,76.30
2022-09-30T06:16:19.045Z,40.83
2022-09-30T06:18:47.741Z,49.93
2022-09-30T06:21:19.423Z,46.47
2022-09-30T06:23:47.731Z,56.77
2022-09-30T06:26:16.430Z,44.87
2022-09-30T06:28:45.240Z,33.43
2022-09-30T06:31:13.610Z,42.10
2022-09-30T06:33:42.529Z,33.00
2022-09-30T06:36:10.840Z,41.20
2022-09-30T06:38:40.535Z,38.90
2022-09-30T06:41:09.732Z,24.73
2022-09-30T06:43:41.354Z,40.33
2022-09-30T06:46:17.645Z,30.57
2022-09-30T06:48:48.601Z,28.17
2022-09-30T06:51:17.021Z,31.67
2022-09-30T06:53:49.010Z,35.00
2022-09-30T06:56:21.213Z,32.13
2022-09-30T06:58:49.491Z,33.47
2022-09-30T07:01:17.620Z,37.20
2022-09-30T07:03:51.433Z,38.63
2022-09-30T07:06:22.170Z,35.83
2022-09-30T07:08:51.653Z,41.53
2022-09-30T07:11:19.745Z,41.97
2022-09-30T07:13:49.600Z,38.07
2022-09-30T07:16:21.230Z,40.80
2022-09-30T07:18:49.597Z,38.07
2022-09-30T07:21:17.768Z,37.00
2022-09-30T07:23:47.704Z,36.77
2022-09-30T07:26:19.714Z,36.20
2022-09-30T07:28:48.271Z,34.87
2022-09-30T07:31:32.373Z,35.57
2022-09-30T07:34:01.551Z,38.37
2022-09-30T07:36:33.579Z,38.73
2022-09-30T07:39:06.783Z,36.50
2022-09-30T07:41:40.084Z,35.67
2022-09-30T07:44:13.177Z,32.83
2022-09-30T07:46:42.364Z,30.87
2022-09-30T07:49:16.673Z,30.30
2022-09-30T07:51:45.610Z,30.43
2022-09-30T07:54:16.594Z,28.23
2022-09-30T07:59:37.494Z,23.63
2022-09-30T08:02:06.793Z,20.70
2022-09-30T08:04:35.993Z,19.63
2022-09-30T08:07:06.123Z,24.90
2022-09-30T08:09:34.927Z,20.77
2022-09-30T08:12:05.817Z,17.83
2022-09-30T08:14:34.032Z,20.30
2022-09-30T08:17:02.515Z,17.70
2022-09-30T08:19:33.668Z,17.33
2022-09-30T08:24:31.385Z,24.30
2022-09-30T08:27:00.045Z,19.73
2022-09-30T08:29:53.224Z,17.47
2022-09-30T08:32:18.237Z,19.37
2022-09-30T08:34:46.359Z,20.40
2022-09-30T08:37:14.415Z,16.00
2022-09-30T08:39:43.464Z,18.90
2022-09-30T08:42:37.286Z,16.33
2022-09-30T08:45:21.573Z,16.47
2022-09-30T08:48:00.313Z,18.67
2022-09-30T08:50:39.466Z,18.10
2022-09-30T08:53:18.946Z,15.40
2022-09-30T08:55:47.711Z,14.80
2022-09-30T08:58:25.097Z,17.00
2022-09-30T09:01:01.041Z,15.17
2022-09-30T09:03:31.791Z,14.13
2022-09-30T09:06:22.106Z,13.70
2022-09-30T09:09:12.758Z,14.17
2022-09-30T09:11:56.031Z,15.50
2022-09-30T09:14:39.286Z,16.20
2022-09-30T09:17:26.042Z,14.60
2022-09-30T09:20:03.112Z,14.77
2022-09-30T09:22:33.138Z,16.63
2022-09-30T09:25:03.278Z,16.33
2022-09-30T09:27:46.362Z,14.70
2022-09-30T09:30:17.416Z,13.77
2022-09-30T09:32:53.391Z,14.67
2022-09-30T09:35:37.982Z,16.17
2022-09-30T09:38:26.874Z,14.97
2022-09-30T09:41:11.014Z,12.40
2022-09-30T09:44:00.354Z,13.60
2022-09-30T09:46:32.335Z,14.77
2022-09-30T09:49:35.083Z,12.43
2022-09-30T09:52:49.130Z,13.37
2022-09-30T09:55:22.839Z,14.03
2022-09-30T09:58:07.576Z,12.20
2022-09-30T10:00:58.968Z,10.90
2022-09-30T10:03:28.671Z,12.03
2022-09-30T10:06:09.043Z,12.00
2022-09-30T10:08:39.706Z,10.37
2022-09-30T10:11:19.301Z,9.67
2022-09-30T10:13:47.826Z,7.87
2022-09-30T10:16:32.494Z,9.97
2022-09-30T10:19:03.132Z,8.13
2022-09-30T10:21:35.561Z,7.47
2022-09-30T10:24:24.663Z,7.00
2022-09-30T10:26:52.810Z,6.70
2022-09-30T10:29:29.954Z,7.73
2022-09-30T10:32:00.458Z,5.43
2022-09-30T10:34:31.758Z,6.20
2022-09-30T10:37:09.253Z,7.17
2022-09-30T10:39:40.175Z,6.90
2022-09-30T10:42:17.432Z,7.40
2022-09-30T10:44:50.391Z,7.73
2022-09-30T10:47:21.842Z,7.03
2022-09-30T10:49:52.955Z,7.67
2022-09-30T10:52:25.861Z,6.50
2022-09-30T10:54:56.607Z,6.63
2022-09-30T10:57:28.832Z,9.77
2022-09-30T11:00:01.614Z,5.33
2022-09-30T11:02:35.558Z,5.43
2022-09-30T11:05:13.602Z,5.70
2022-09-30T11:07:48.021Z,5.10
2022-09-30T11:10:32.853Z,4.93
2022-09-30T11:13:08.667Z,4.47
2022-09-30T11:15:46.919Z,3.40
2022-09-30T11:18:25.038Z,3.37
2022-09-30T11:20:58.440Z,3.10
2022-09-30T11:23:33.884Z,3.07
2022-09-30T11:26:09.135Z,3.17
2022-09-30T11:28:55.105Z,3.53
2022-09-30T11:31:32.593Z,3.00
2022-09-30T11:34:20.072Z,3.53
2022-09-30T11:36:59.889Z,2.80
2022-09-30T11:39:59.231Z,3.33
2022-09-30T11:42:37.592Z,3.83
2022-09-30T11:45:23.437Z,3.43
2022-09-30T11:48:13.526Z,4.30
2022-09-30T11:50:55.990Z,4.37
2022-09-30T11:53:39.943Z,5.63
2022-09-30T11:56:27.253Z,5.83
2022-09-30T11:59:00.321Z,4.70
2022-09-30T12:01:33.614Z,4.73
2022-09-30T12:04:09.016Z,4.37
2022-09-30T12:06:41.882Z,4.63
2022-09-30T12:09:19.609Z,4.47
2022-09-30T12:11:57.004Z,4.30
2022-09-30T12:14:32.995Z,4.27
2022-09-30T12:17:04.539Z,4.07
2022-09-30T12:19:37.770Z,3.50
2022-09-30T12:22:13.054Z,3.20
2022-09-30T12:24:45.595Z,3.23
2022-09-30T12:27:23.677Z,3.67
2022-09-30T12:30:17.553Z,4.00
2022-09-30T12:33:22.211Z,2.40
2022-09-30T12:36:40.005Z,3.03
2022-09-30T12:39:52.807Z,3.10
2022-09-30T12:42:43.932Z,3.03
2022-09-30T12:46:04.602Z,3.33
2022-09-30T12:48:39.302Z,2.13
2022-09-30T12:51:08.498Z,2.92
2022-09-30T12:53:40.074Z,2.38
2022-09-30T12:56:11.100Z,2.80
2022-09-30T12:58:53.088Z,2.60
2022-09-30T13:01:25.760Z,3.17
2022-09-30T13:04:18.487Z,4.15
2022-09-30T13:07:14.160Z,3.10
2022-09-30T13:10:26.112Z,3.65
2022-09-30T13:13:24.602Z,3.83
2022-09-30T13:15:56.226Z,4.45
2022-09-30T13:19:03.124Z,5.00
2022-09-30T13:21:33.725Z,4.53
2022-09-30T13:24:02.200Z,5.13
2022-09-30T13:26:43.095Z,5.27
2022-09-30T13:29:38.338Z,6.53
2022-09-30T13:32:10.528Z,5.07
2022-09-30T13:34:58.810Z,5.53
2022-09-30T13:37:39.489Z,6.30
2022-09-30T13:40:32.928Z,6.00
2022-09-30T13:43:16.584Z,6.20
2022-09-30T13:45:47.037Z,6.60
2022-09-30T13:48:20.482Z,7.20
2022-09-30T13:50:52.648Z,6.20
2022-09-30T13:53:31.083Z,8.03
2022-09-30T13:56:02.555Z,6.37
2022-09-30T13:59:19.268Z,6.23
2022-09-30T14:02:10.102Z,9.37
2022-09-30T14:05:08.695Z,7.33
2022-09-30T14:07:51.418Z,7.50
2022-09-30T14:10:40.076Z,7.03
2022-09-30T14:13:25.858Z,6.70
2022-09-30T14:16:14.008Z,8.77
2022-09-30T14:19:13.430Z,8.27
2022-09-30T14:21:48.155Z,9.73
2022-09-30T14:24:23.961Z,10.03
2022-09-30T14:27:19.425Z,9.47
2022-09-30T14:30:01.452Z,11.57
2022-09-30T14:32:32.804Z,11.03
2022-09-30T14:35:06.225Z,11.17
2022-09-30T14:37:40.730Z,11.00
2022-09-30T14:40:14.009Z,12.17
2022-09-30T14:42:44.310Z,11.67
2022-09-30T14:45:22.238Z,11.20
2022-09-30T14:47:52.918Z,11.00
2022-09-30T14:50:26.014Z,11.50
2022-09-30T14:52:58.776Z,11.90
2022-09-30T14:55:31.662Z,13.03
2022-09-30T14:58:28.429Z,12.23
2022-09-30T15:01:07.059Z,11.30
2022-09-30T15:03:38.026Z,12.30
2022-09-30T15:06:08.215Z,10.93
2022-09-30T15:08:37.735Z,10.80
2022-09-30T15:11:06.364Z,12.10
2022-09-30T15:13:36.047Z,12.67
2022-09-30T15:16:04.246Z,11.83
2022-09-30T15:18:36.433Z,12.50
2022-09-30T15:21:12.098Z,11.77
2022-09-30T15:23:46.878Z,11.10
2022-09-30T15:26:16.185Z,11.47
2022-09-30T15:28:44.419Z,12.23
2022-09-30T15:31:23.663Z,12.73
2022-09-30T15:34:06.832Z,11.23
2022-09-30T15:36:37.171Z,12.23
2022-09-30T15:39:13.864Z,10.80
2022-09-30T15:41:42.430Z,11.53
2022-09-30T15:44:19.973Z,10.80
2022-09-30T15:47:04.334Z,11.50
2022-09-30T15:49:36.262Z,10.83
2022-09-30T15:52:39.000Z,10.77
2022-09-30T15:55:42.252Z,11.53
2022-09-30T15:58:37.911Z,13.10
2022-09-30T16:01:19.570Z,11.73
2022-09-30T16:03:54.196Z,11.80
2022-09-30T16:06:27.612Z,11.83
2022-09-30T16:09:02.218Z,11.83
2022-09-30T16:11:36.679Z,12.33
2022-09-30T16:14:10.119Z,11.73
2022-09-30T16:16:40.066Z,12.80
2022-09-30T16:19:16.902Z,12.53
2022-09-30T16:21:50.916Z,12.47
2022-09-30T16:24:50.200Z,12.17
2022-09-30T16:27:32.601Z,12.63
2022-09-30T16:30:01.610Z,13.40
2022-09-30T16:32:33.902Z,12.60
2022-09-30T16:35:02.295Z,15.00
2022-09-30T16:37:30.881Z,13.13
2022-09-30T16:40:17.115Z,13.47
2022-09-30T16:42:46.778Z,12.00
2022-09-30T16:45:16.085Z,12.20
2022-09-30T16:47:44.826Z,12.17
2022-09-30T16:50:25.014Z,11.40
2022-09-30T16:52:53.100Z,12.10
2022-09-30T16:55:21.415Z,12.40
2022-09-30T16:57:51.004Z,11.13
2022-09-30T17:00:19.793Z,12.50
2022-09-30T17:02:50.287Z,11.90
2022-09-30T17:05:20.737Z,10.60
2022-09-30T17:07:53.332Z,12.43
2022-09-30T17:10:25.624Z,11.73
2022-09-30T17:12:55.227Z,11.20
2022-09-30T17:15:24.135Z,10.80
2022-09-30T17:17:52.746Z,10.80
2022-09-30T17:20:21.285Z,10.97
2022-09-30T17:22:50.202Z,11.00
2022-09-30T17:25:20.301Z,10.37
2022-09-30T17:27:50.182Z,10.53
2022-09-30T17:30:20.391Z,10.73
2022-09-30T17:32:48.881Z,11.03
2022-09-30T17:35:17.535Z,13.13
2022-09-30T17:37:46.685Z,13.80
2022-09-30T17:40:32.738Z,13.87
2022-09-30T17:43:11.019Z,15.87
2022-09-30T17:45:43.283Z,16.90
2022-09-30T17:48:13.487Z,18.10
2022-09-30T17:50:45.206Z,18.80
2022-09-30T17:53:16.814Z,18.53
2022-09-30T17:55:47.376Z,17.73
2022-09-30T17:58:16.778Z,17.43
2022-09-30T18:00:47.486Z,17.23
2022-09-30T18:03:15.657Z,16.93
2022-09-30T18:05:45.445Z,15.57
2022-09-30T18:08:13.777Z,15.67
2022-09-30T18:10:41.873Z,16.13
2022-09-30T18:13:11.466Z,15.83
2022-09-30T18:15:40.394Z,16.50
2022-09-30T18:18:09.770Z,14.73
2022-09-30T18:20:38.300Z,15.13
2022-09-30T18:23:06.472Z,17.30
2022-09-30T18:25:34.708Z,15.27
2022-09-30T18:28:03.949Z,15.33
2022-09-30T18:30:32.150Z,15.43
2022-09-30T18:33:00.273Z,14.20
2022-09-30T18:35:30.189Z,14.70
2022-09-30T18:37:58.606Z,14.63
2022-09-30T18:40:28.332Z,14.60
2022-09-30T18:42:59.333Z,14.50
2022-09-30T18:45:28.450Z,15.40
2022-09-30T18:47:58.807Z,14.60
2022-09-30T18:50:30.491Z,15.57
2022-09-30T18:53:02.089Z,14.90
2022-09-30T18:55:32.227Z,15.20
2022-09-30T18:58:00.356Z,15.17
2022-09-30T19:00:31.208Z,16.97
2022-09-30T19:02:59.505Z,14.27
2022-09-30T19:05:29.974Z,14.03
2022-09-30T19:07:58.079Z,14.17
2022-09-30T19:10:26.356Z,14.73
2022-09-30T19:12:54.458Z,14.30
2022-09-30T19:15:23.535Z,14.37
2022-09-30T19:17:53.072Z,14.67
2022-09-30T19:20:21.696Z,14.77
2022-09-30T19:22:52.275Z,13.87
2022-09-30T19:25:20.685Z,12.87
2022-09-30T19:27:49.528Z,12.97
2022-09-30T19:30:17.757Z,12.63
2022-09-30T19:32:46.300Z,12.00
2022-09-30T19:35:14.735Z,12.70
2022-09-30T19:37:55.002Z,11.97
2022-09-30T19:43:06.856Z,11.83
2022-09-30T19:45:35.175Z,12.40
2022-09-30T19:48:03.327Z,11.17
2022-09-30T19:50:31.418Z,11.00
2022-09-30T19:52:59.998Z,11.30
2022-09-30T19:55:30.252Z,12.53
2022-09-30T19:57:59.333Z,12.13
2022-09-30T20:00:27.442Z,10.77
2022-09-30T20:02:56.206Z,9.83
2022-09-30T20:05:24.353Z,12.90
2022-09-30T20:07:53.416Z,11.53
2022-09-30T20:10:21.553Z,10.60
2022-09-30T20:12:51.139Z,10.70
2022-09-30T20:15:37.354Z,10.00
2022-09-30T20:18:05.877Z,9.80
2022-09-30T20:20:38.422Z,12.30
2022-09-30T20:23:06.555Z,14.50
2022-09-30T20:25:36.345Z,12.20
2022-09-30T20:28:06.961Z,10.70
2022-09-30T20:30:42.806Z,14.90
2022-09-30T20:33:10.919Z,11.13
2022-09-30T20:35:39.136Z,11.23
2022-09-30T20:38:10.883Z,12.93
2022-09-30T20:40:40.005Z,10.00
2022-09-30T20:43:10.237Z,15.43
2022-09-30T20:45:41.374Z,10.40
2022-09-30T20:48:09.741Z,13.13
2022-09-30T20:50:43.394Z,13.23
2022-09-30T20:53:14.627Z,11.77
2022-09-30T20:55:44.563Z,10.63
2022-09-30T20:58:14.606Z,11.30
2022-09-30T21:00:44.255Z,10.70
2022-09-30T21:03:14.777Z,9.03
2022-09-30T21:05:52.977Z,10.83
2022-09-30T21:08:21.220Z,8.47
2022-09-30T21:10:49.306Z,8.47
2022-09-30T21:13:19.050Z,8.17
2022-09-30T21:15:47.267Z,8.40
2022-09-30T21:18:15.493Z,9.17
2022-09-30T21:20:43.600Z,8.27
2022-09-30T21:23:12.781Z,11.07
2022-09-30T21:25:43.284Z,8.03
2022-09-30T21:28:11.390Z,6.97
2022-09-30T21:30:42.224Z,6.90
2022-09-30T21:33:10.288Z,6.63
2022-09-30T21:35:38.472Z,7.00
2022-09-30T21:38:06.676Z,5.97
2022-09-30T21:40:34.861Z,5.80
2022-09-30T21:43:04.409Z,6.07
2022-09-30T21:45:32.581Z,6.00
2022-09-30T21:48:07.350Z,6.13
2022-09-30T21:50:36.174Z,6.43
2022-09-30T21:53:04.616Z,8.23
2022-09-30T21:55:33.414Z,6.87
2022-09-30T21:58:01.512Z,6.50
2022-09-30T22:00:29.685Z,7.53
2022-09-30T22:02:58.804Z,6.00
2022-09-30T22:05:28.304Z,6.60
2022-09-30T22:07:59.444Z,6.40
2022-09-30T22:10:27.794Z,6.17
2022-09-30T22:12:55.950Z,5.73
2022-09-30T22:15:24.140Z,6.20
2022-09-30T22:17:52.507Z,5.57
2022-09-30T22:20:21.381Z,5.37
2022-09-30T22:22:50.870Z,5.57
2022-09-30T22:25:20.372Z,6.10
2022-09-30T22:27:48.505Z,5.40
2022-09-30T22:30:16.850Z,5.53
2022-09-30T22:32:45.002Z,5.57
2022-09-30T22:35:30.938Z,5.97
2022-09-30T22:38:18.253Z,6.63
2022-09-30T22:40:46.500Z,5.77
2022-09-30T22:43:15.264Z,5.10
2022-09-30T22:45:43.879Z,5.10
2022-09-30T22:48:12.028Z,5.23
2022-09-30T22:50:40.453Z,5.27
2022-09-30T22:53:09.969Z,5.50
2022-09-30T22:55:38.193Z,5.07
2022-09-30T22:58:06.328Z,5.60
2022-09-30T23:00:34.413Z,5.47
2022-09-30T23:03:03.549Z,6.03
2022-09-30T23:05:39.199Z,7.93
2022-09-30T23:08:07.319Z,7.03
2022-09-30T23:10:38.448Z,6.40
2022-09-30T23:13:08.863Z,6.60
2022-09-30T23:15:36.962Z,7.10
2022-09-30T23:18:05.142Z,7.60
2022-09-30T23:20:33.237Z,8.37
2022-09-30T23:23:01.342Z,7.43
2022-09-30T23:25:29.489Z,8.67
2022-09-30T23:27:59.153Z,8.27
2022-09-30T23:30:27.841Z,8.13
2022-09-30T23:32:55.861Z,7.83
2022-09-30T23:35:24.058Z,10.50
2022-09-30T23:37:52.926Z,9.57
2022-09-30T23:40:21.025Z,8.67
2022-09-30T23:42:50.439Z,8.73
2022-09-30T23:45:19.897Z,10.03
2022-09-30T23:47:49.252Z,9.47
2022-09-30T23:50:17.466Z,8.90
2022-09-30T23:52:45.628Z,10.93
2022-09-30T23:55:13.720Z,9.50
2022-09-30T23:57:42.157Z,9.90
